createdAt,value
2023-05-07T00:02:16.523Z,2.10
2023-05-07T00:04:43.568Z,2.10
2023-05-07T00:07:10.520Z,2.10
2023-05-07T00:09:37.566Z,2.10
2023-05-07T00:12:04.507Z,2.00
2023-05-07T00:14:31.383Z,1.90
2023-05-07T00:16:58.512Z,1.90
2023-05-07T00:19:25.526Z,1.80
2023-05-07T00:21:54.575Z,1.80
2023-05-07T00:24:21.404Z,1.80
2023-05-07T00:26:48.318Z,1.70
2023-05-07T00:29:15.203Z,1.70
2023-05-07T00:31:42.122Z,1.60
2023-05-07T00:34:09.166Z,1.50
2023-05-07T00:36:36.096Z,1.50
2023-05-07T00:39:04.699Z,1.40
2023-05-07T00:41:34.078Z,1.40
2023-05-07T00:44:03.567Z,1.40
2023-05-07T00:46:32.346Z,1.30
2023-05-07T00:49:00.463Z,1.20
2023-05-07T00:51:28.380Z,1.20
2023-05-07T00:53:55.636Z,1.20
2023-05-07T00:56:23.284Z,1.10
2023-05-07T00:58:50.648Z,1.00
2023-05-07T01:01:17.735Z,1.00
2023-05-07T01:03:44.851Z,1.00
2023-05-07T01:06:14.160Z,1.00
2023-05-07T01:08:43.068Z,0.90
2023-05-07T01:11:10.963Z,0.90
2023-05-07T01:13:38.482Z,0.90
2023-05-07T01:16:06.291Z,0.80
2023-05-07T01:18:33.687Z,0.80
2023-05-07T01:21:02.872Z,0.80
2023-05-07T01:23:31.585Z,0.70
2023-05-07T01:25:58.415Z,0.70
2023-05-07T01:28:25.280Z,0.70
2023-05-07T01:30:56.612Z,0.70
2023-05-07T01:33:24.834Z,0.70
2023-05-07T01:35:54.488Z,0.70
2023-05-07T01:38:23.551Z,0.60
2023-05-07T01:40:50.613Z,0.60
2023-05-07T01:43:17.999Z,0.60
2023-05-07T01:45:46.003Z,0.70
2023-05-07T01:48:15.155Z,0.70
2023-05-07T01:50:43.874Z,0.60
2023-05-07T01:53:10.893Z,0.60
2023-05-07T01:55:41.139Z,0.50
2023-05-07T01:58:08.132Z,0.50
2023-05-07T02:00:35.057Z,0.40
2023-05-07T02:03:02.020Z,0.40
2023-05-07T02:05:28.968Z,0.30
2023-05-07T02:07:55.826Z,0.30
2023-05-07T02:10:22.852Z,0.30
2023-05-07T02:12:49.699Z,0.20
2023-05-07T02:15:16.617Z,0.20
2023-05-07T02:18:03.059Z,0.20
2023-05-07T02:20:30.378Z,0.20
2023-05-07T02:22:57.412Z,0.20
2023-05-07T02:25:24.362Z,0.20
2023-05-07T02:27:51.290Z,0.10
2023-05-07T02:30:18.316Z,0.10
2023-05-07T02:32:45.657Z,0.10
2023-05-07T02:35:12.637Z,0.00
2023-05-07T02:37:39.522Z,0.00
2023-05-07T02:40:07.065Z,0.00
2023-05-07T02:42:33.996Z,0.10
2023-05-07T02:45:01.018Z,0.00
2023-05-07T02:47:29.080Z,0.10
2023-05-07T02:49:56.411Z,0.10
2023-05-07T02:52:23.637Z,0.10
2023-05-07T02:54:50.597Z,0.10
2023-05-07T02:57:17.637Z,0.10
2023-05-07T02:59:44.777Z,0.20
2023-05-07T03:02:11.691Z,0.20
2023-05-07T03:04:38.871Z,0.10
2023-05-07T03:07:05.871Z,0.10
2023-05-07T03:09:32.749Z,0.10
2023-05-07T03:11:59.643Z,0.10
2023-05-07T03:14:26.514Z,0.10
2023-05-07T03:16:53.411Z,0.10
2023-05-07T03:19:20.391Z,0.10
2023-05-07T03:21:47.277Z,0.20
2023-05-07T03:24:14.134Z,0.30
2023-05-07T03:26:40.980Z,0.30
2023-05-07T03:29:07.880Z,0.20
2023-05-07T03:31:34.887Z,0.20
2023-05-07T03:34:01.839Z,0.20
2023-05-07T03:36:28.813Z,0.30
2023-05-07T03:38:55.782Z,0.20
2023-05-07T03:41:22.798Z,0.30
2023-05-07T03:43:49.737Z,0.30
2023-05-07T03:46:16.718Z,0.30
2023-05-07T03:48:43.595Z,0.40
2023-05-07T03:51:10.505Z,0.40
2023-05-07T03:53:37.452Z,0.40
2023-05-07T03:56:04.692Z,0.50
2023-05-07T03:58:31.585Z,0.50
2023-05-07T04:00:58.460Z,0.50
2023-05-07T04:03:25.764Z,0.60
2023-05-07T04:05:52.683Z,0.50
2023-05-07T04:08:19.548Z,0.50
2023-05-07T04:10:46.944Z,0.50
2023-05-07T04:13:14.639Z,0.50
2023-05-07T04:15:41.603Z,0.50
2023-05-07T04:18:08.562Z,0.40
2023-05-07T04:20:37.444Z,0.40
2023-05-07T04:23:04.359Z,0.50
2023-05-07T04:25:31.693Z,0.60
2023-05-07T04:27:58.548Z,0.70
2023-05-07T04:30:25.646Z,0.90
2023-05-07T04:32:53.032Z,1.00
2023-05-07T04:35:20.092Z,1.00
2023-05-07T04:37:46.979Z,1.10
2023-05-07T04:40:14.089Z,1.10
2023-05-07T04:42:41.442Z,1.20
2023-05-07T04:45:09.742Z,1.10
2023-05-07T04:47:36.851Z,1.20
2023-05-07T04:50:03.834Z,1.20
2023-05-07T04:52:30.687Z,1.20
2023-05-07T04:54:57.558Z,1.30
2023-05-07T04:57:24.431Z,1.40
2023-05-07T04:59:51.438Z,1.40
2023-05-07T05:02:20.168Z,1.50
2023-05-07T05:04:47.789Z,1.50
2023-05-07T05:07:14.748Z,1.60
2023-05-07T05:09:41.600Z,1.70
2023-05-07T05:12:08.504Z,1.70
2023-05-07T05:14:35.374Z,1.80
2023-05-07T05:17:02.244Z,1.90
2023-05-07T05:19:29.170Z,2.00
2023-05-07T05:21:56.252Z,2.10
2023-05-07T05:24:23.111Z,2.20
2023-05-07T05:26:50.331Z,2.30
2023-05-07T05:29:17.212Z,2.30
2023-05-07T05:31:44.169Z,2.40
2023-05-07T05:34:11.057Z,2.50
2023-05-07T05:36:38.430Z,2.60
2023-05-07T05:39:05.606Z,2.70
2023-05-07T05:41:32.543Z,2.80
2023-05-07T05:43:59.420Z,2.90
2023-05-07T05:46:26.324Z,3.00
2023-05-07T05:48:53.242Z,3.10
2023-05-07T05:51:22.018Z,3.20
2023-05-07T05:53:48.976Z,3.40
2023-05-07T05:56:16.991Z,3.50
2023-05-07T05:58:44.037Z,3.60
2023-05-07T06:01:12.550Z,3.70
2023-05-07T06:03:39.503Z,3.80
2023-05-07T06:06:06.629Z,3.90
2023-05-07T06:08:33.615Z,4.00
2023-05-07T06:11:01.176Z,4.20
2023-05-07T06:13:28.165Z,4.30
2023-05-07T06:15:55.190Z,4.50
2023-05-07T06:18:22.104Z,4.50
2023-05-07T06:20:49.024Z,4.70
2023-05-07T06:23:17.883Z,4.70
2023-05-07T06:25:51.089Z,4.90
2023-05-07T06:28:18.078Z,5.00
2023-05-07T06:30:45.120Z,5.10
2023-05-07T06:33:12.112Z,5.20
2023-05-07T06:35:39.078Z,5.20
2023-05-07T06:38:06.203Z,5.20
2023-05-07T06:40:33.140Z,5.30
2023-05-07T06:43:00.120Z,5.30
2023-05-07T06:45:27.176Z,5.40
2023-05-07T06:47:54.167Z,5.40
2023-05-07T06:50:21.015Z,5.50
2023-05-07T06:52:47.934Z,5.50
2023-05-07T06:55:14.857Z,5.60
2023-05-07T06:57:41.696Z,5.70
2023-05-07T07:00:11.306Z,5.80
2023-05-07T07:02:38.705Z,5.80
2023-05-07T07:05:06.226Z,5.90
2023-05-07T07:07:33.132Z,6.00
2023-05-07T07:10:00.039Z,6.00
2023-05-07T07:12:27.164Z,6.00
2023-05-07T07:14:55.137Z,6.00
2023-05-07T07:17:22.295Z,6.00
2023-05-07T07:19:49.174Z,6.10
2023-05-07T07:22:16.055Z,6.10
2023-05-07T07:24:42.889Z,6.10
2023-05-07T07:27:09.735Z,6.20
2023-05-07T07:29:36.634Z,6.20
2023-05-07T07:32:03.742Z,6.20
2023-05-07T07:34:31.245Z,6.30
2023-05-07T07:36:58.087Z,6.40
2023-05-07T07:39:24.920Z,6.40
2023-05-07T07:41:51.819Z,6.50
2023-05-07T07:44:18.709Z,6.60
2023-05-07T07:46:45.725Z,6.60
2023-05-07T07:49:12.644Z,6.60
2023-05-07T07:51:39.634Z,6.60
2023-05-07T07:54:06.521Z,6.60
2023-05-07T07:56:37.162Z,6.70
2023-05-07T07:59:04.063Z,6.70
2023-05-07T08:01:31.627Z,6.80
2023-05-07T08:04:01.629Z,6.80
2023-05-07T08:06:28.674Z,6.90
2023-05-07T08:08:56.136Z,6.90
2023-05-07T08:11:23.021Z,7.00
2023-05-07T08:13:49.971Z,7.00
2023-05-07T08:16:16.986Z,7.00
2023-05-07T08:18:43.897Z,7.10
2023-05-07T08:21:11.029Z,7.20
2023-05-07T08:23:37.911Z,7.30
2023-05-07T08:26:04.797Z,7.40
2023-05-07T08:28:31.752Z,7.40
2023-05-07T08:31:01.021Z,7.50
2023-05-07T08:33:28.318Z,7.50
2023-05-07T08:35:55.239Z,7.60
2023-05-07T08:38:22.105Z,7.60
2023-05-07T08:40:49.030Z,7.70
2023-05-07T08:43:16.190Z,7.70
2023-05-07T08:45:44.792Z,7.80
2023-05-07T08:48:17.377Z,7.90
2023-05-07T08:50:44.397Z,7.90
2023-05-07T08:53:11.464Z,7.90
2023-05-07T08:55:38.347Z,7.90
2023-05-07T08:58:05.290Z,7.90
2023-05-07T09:00:33.193Z,7.90
2023-05-07T09:03:01.443Z,7.90
2023-05-07T09:05:28.336Z,8.00
2023-05-07T09:07:58.481Z,8.00
2023-05-07T09:10:26.770Z,8.00
2023-05-07T09:12:53.629Z,8.10
2023-05-07T09:15:20.779Z,8.00
2023-05-07T09:17:47.715Z,8.00
2023-05-07T09:20:14.785Z,8.00
2023-05-07T09:22:41.636Z,8.00
2023-05-07T09:25:09.667Z,8.00
2023-05-07T09:27:36.954Z,8.10
2023-05-07T09:30:08.185Z,8.20
2023-05-07T09:32:41.363Z,8.20
2023-05-07T09:35:17.119Z,8.30
2023-05-07T09:37:44.146Z,8.30
2023-05-07T09:40:25.551Z,8.30
2023-05-07T09:42:53.223Z,8.40
2023-05-07T09:45:27.382Z,8.30
2023-05-07T09:47:58.930Z,8.50
2023-05-07T09:50:31.341Z,8.50
2023-05-07T09:52:58.758Z,8.50
2023-05-07T09:55:26.428Z,8.60
2023-05-07T09:57:55.151Z,8.60
2023-05-07T10:00:22.910Z,8.60
2023-05-07T10:02:53.437Z,8.60
2023-05-07T10:05:22.511Z,8.60
2023-05-07T10:07:49.908Z,8.60
2023-05-07T10:10:17.280Z,8.60
2023-05-07T10:12:44.321Z,8.70
2023-05-07T10:15:12.985Z,8.80
2023-05-07T10:17:40.796Z,8.90
2023-05-07T10:20:09.435Z,8.90
2023-05-07T10:22:44.953Z,8.90
2023-05-07T10:25:32.003Z,8.90
2023-05-07T10:28:03.621Z,8.90
2023-05-07T10:30:53.869Z,8.90
2023-05-07T10:33:27.311Z,8.90
2023-05-07T10:35:59.789Z,8.90
2023-05-07T10:38:27.953Z,8.90
2023-05-07T10:40:55.270Z,9.00
2023-05-07T10:43:22.558Z,9.00
2023-05-07T10:46:12.870Z,9.10
2023-05-07T10:49:07.247Z,9.20
2023-05-07T10:51:35.030Z,9.20
2023-05-07T10:54:11.052Z,9.20
2023-05-07T10:56:39.122Z,9.20
2023-05-07T10:59:32.162Z,9.20
2023-05-07T11:02:03.567Z,9.30
2023-05-07T11:04:35.923Z,9.30
2023-05-07T11:07:13.184Z,9.30
2023-05-07T11:09:56.926Z,9.40
2023-05-07T11:12:44.101Z,9.40
2023-05-07T11:15:13.769Z,9.30
2023-05-07T11:17:57.872Z,9.40
2023-05-07T11:20:48.954Z,9.40
2023-05-07T11:23:34.364Z,9.50
2023-05-07T11:26:05.727Z,9.50
2023-05-07T11:28:41.566Z,9.50
2023-05-07T11:31:08.964Z,9.50
2023-05-07T11:33:37.112Z,9.60
2023-05-07T11:36:05.364Z,9.50
2023-05-07T11:38:36.794Z,9.50
2023-05-07T11:41:06.165Z,9.50
2023-05-07T11:43:34.181Z,9.50
2023-05-07T11:46:11.743Z,9.50
2023-05-07T11:48:39.834Z,9.50
2023-05-07T11:51:09.813Z,9.40
2023-05-07T11:53:38.894Z,9.40
2023-05-07T11:56:13.860Z,9.50
2023-05-07T11:58:41.728Z,9.50
2023-05-07T12:01:13.796Z,9.50
2023-05-07T12:03:45.883Z,9.50
2023-05-07T12:06:14.524Z,9.60
2023-05-07T12:08:42.827Z,9.70
2023-05-07T12:11:13.615Z,9.70
2023-05-07T12:13:40.696Z,9.70
2023-05-07T12:16:08.294Z,9.70
2023-05-07T12:18:38.768Z,9.70
2023-05-07T12:21:07.557Z,9.60
2023-05-07T12:23:36.819Z,9.70
2023-05-07T12:26:07.049Z,9.80
2023-05-07T12:28:39.899Z,9.80
2023-05-07T12:31:07.416Z,9.90
2023-05-07T12:33:35.902Z,9.90
2023-05-07T12:36:06.853Z,10.00
2023-05-07T12:38:41.745Z,9.90
2023-05-07T12:41:10.937Z,10.00
2023-05-07T12:43:38.121Z,10.00
2023-05-07T12:46:06.985Z,9.90
2023-05-07T12:48:34.551Z,9.80
2023-05-07T12:51:02.690Z,9.70
2023-05-07T12:53:32.124Z,9.70
2023-05-07T12:56:00.838Z,9.70
2023-05-07T12:58:28.906Z,9.60
2023-05-07T13:01:00.807Z,9.60
2023-05-07T13:03:39.139Z,9.70
2023-05-07T13:06:08.611Z,9.70
2023-05-07T13:08:46.153Z,9.80
2023-05-07T13:11:14.161Z,9.80
2023-05-07T13:13:42.020Z,9.90
2023-05-07T13:16:10.851Z,10.00
2023-05-07T13:18:41.516Z,10.00
2023-05-07T13:21:08.804Z,10.10
2023-05-07T13:23:35.890Z,10.10
2023-05-07T13:26:08.544Z,10.10
2023-05-07T13:28:38.503Z,10.10
2023-05-07T13:31:05.410Z,10.20
2023-05-07T13:33:32.309Z,10.20
2023-05-07T13:35:59.340Z,10.30
2023-05-07T13:38:26.232Z,10.40
2023-05-07T13:40:53.174Z,10.40
2023-05-07T13:43:21.028Z,10.40
2023-05-07T13:45:47.971Z,10.50
2023-05-07T13:48:14.885Z,10.60
2023-05-07T13:50:41.783Z,10.70
2023-05-07T13:53:09.683Z,10.70
2023-05-07T13:55:36.554Z,10.80
2023-05-07T13:58:06.931Z,10.90
2023-05-07T14:00:34.429Z,10.90
2023-05-07T14:03:01.464Z,11.00
2023-05-07T14:05:29.159Z,11.00
2023-05-07T14:07:58.675Z,11.10
2023-05-07T14:10:26.172Z,11.10
2023-05-07T14:12:53.831Z,11.10
2023-05-07T14:15:20.885Z,11.00
2023-05-07T14:17:48.333Z,10.90
2023-05-07T14:20:15.547Z,10.90
2023-05-07T14:22:42.575Z,11.00
2023-05-07T14:25:10.918Z,11.00
2023-05-07T14:27:37.988Z,11.20
2023-05-07T14:30:05.551Z,11.20
2023-05-07T14:32:34.175Z,11.20
2023-05-07T14:35:01.222Z,11.30
2023-05-07T14:37:28.258Z,11.40
2023-05-07T14:39:55.374Z,11.60
2023-05-07T14:42:22.219Z,11.80
2023-05-07T14:44:49.450Z,12.00
2023-05-07T14:47:19.044Z,12.10
2023-05-07T14:49:46.621Z,12.20
2023-05-07T14:52:13.715Z,12.30
2023-05-07T14:54:40.786Z,12.40
2023-05-07T14:57:10.576Z,12.50
2023-05-07T14:59:38.570Z,12.70
2023-05-07T15:02:07.302Z,12.60
2023-05-07T15:04:34.708Z,12.70
2023-05-07T15:07:01.753Z,12.70
2023-05-07T15:09:28.636Z,12.80
2023-05-07T15:11:55.485Z,12.90
2023-05-07T15:14:23.237Z,13.00
2023-05-07T15:16:50.963Z,13.00
2023-05-07T15:19:18.073Z,13.00
2023-05-07T15:21:45.093Z,13.00
2023-05-07T15:24:12.035Z,13.00
2023-05-07T15:26:38.900Z,13.20
2023-05-07T15:29:11.096Z,13.30
2023-05-07T15:31:40.015Z,13.40
2023-05-07T15:34:07.372Z,13.50
2023-05-07T15:36:34.332Z,13.50
2023-05-07T15:39:03.081Z,13.60
2023-05-07T15:41:30.038Z,13.70
2023-05-07T15:43:56.956Z,13.80
2023-05-07T15:46:25.669Z,13.70
2023-05-07T15:48:54.028Z,13.60
2023-05-07T15:51:21.301Z,13.40
2023-05-07T15:53:48.333Z,13.30
2023-05-07T15:56:15.251Z,13.20
2023-05-07T15:58:42.097Z,13.00
2023-05-07T16:01:09.183Z,12.80
2023-05-07T16:03:36.393Z,12.70
2023-05-07T16:06:03.518Z,12.40
2023-05-07T16:08:30.457Z,12.10
2023-05-07T16:10:57.662Z,11.80
2023-05-07T16:13:25.282Z,11.60
2023-05-07T16:15:59.486Z,11.40
2023-05-07T16:18:26.459Z,11.20
2023-05-07T16:20:54.504Z,11.10
2023-05-07T16:23:21.715Z,10.90
2023-05-07T16:25:50.013Z,10.70
2023-05-07T16:28:16.980Z,10.50
2023-05-07T16:30:44.743Z,10.50
2023-05-07T16:33:11.676Z,10.40
2023-05-07T16:35:38.543Z,10.20
2023-05-07T16:38:10.188Z,10.20
2023-05-07T16:40:40.585Z,10.10
2023-05-07T16:43:07.717Z,10.10
2023-05-07T16:45:34.731Z,10.10
2023-05-07T16:48:03.314Z,10.00
2023-05-07T16:50:30.498Z,10.00
2023-05-07T16:52:57.385Z,9.90
2023-05-07T16:55:24.355Z,10.00
2023-05-07T16:57:51.247Z,10.00
2023-05-07T17:00:18.298Z,10.00
2023-05-07T17:02:46.865Z,9.90
2023-05-07T17:05:14.394Z,9.90
2023-05-07T17:07:41.908Z,9.80
2023-05-07T17:10:09.256Z,9.80
2023-05-07T17:12:37.542Z,9.80
2023-05-07T17:15:04.991Z,9.80
2023-05-07T17:17:32.889Z,9.80
2023-05-07T17:20:00.263Z,9.70
2023-05-07T17:22:27.419Z,9.70
2023-05-07T17:24:54.417Z,9.60
2023-05-07T17:27:21.288Z,9.60
2023-05-07T17:29:48.193Z,9.40
2023-05-07T17:32:15.103Z,9.30
2023-05-07T17:34:42.401Z,9.30
2023-05-07T17:37:09.425Z,9.20
2023-05-07T17:39:36.330Z,9.10
2023-05-07T17:42:03.370Z,9.10
2023-05-07T17:44:30.391Z,9.00
2023-05-07T17:46:57.280Z,9.00
2023-05-07T17:49:24.186Z,8.90
2023-05-07T17:51:55.144Z,8.90
2023-05-07T17:54:24.273Z,8.90
2023-05-07T17:56:51.586Z,8.90
2023-05-07T17:59:18.470Z,8.80
2023-05-07T18:01:45.511Z,8.80
2023-05-07T18:04:12.528Z,8.70
2023-05-07T18:06:39.880Z,8.60
2023-05-07T18:09:07.182Z,8.50
2023-05-07T18:11:34.178Z,8.50
2023-05-07T18:14:01.421Z,8.40
2023-05-07T18:16:28.373Z,8.30
2023-05-07T18:18:56.065Z,8.20
2023-05-07T18:21:22.975Z,8.20
2023-05-07T18:23:51.442Z,8.10
2023-05-07T18:26:18.338Z,8.10
2023-05-07T18:28:46.178Z,8.10
2023-05-07T18:31:13.092Z,8.00
2023-05-07T18:33:39.988Z,8.00
2023-05-07T18:36:07.071Z,8.00
2023-05-07T18:38:34.273Z,8.00
2023-05-07T18:41:05.650Z,8.00
2023-05-07T18:43:34.008Z,7.90
2023-05-07T18:46:01.284Z,7.80
2023-05-07T18:48:28.239Z,7.80
2023-05-07T18:50:55.577Z,7.70
2023-05-07T18:53:22.798Z,7.70
2023-05-07T18:55:53.327Z,7.60
2023-05-07T18:58:20.617Z,7.70
2023-05-07T19:00:48.794Z,7.60
2023-05-07T19:03:17.185Z,7.50
2023-05-07T19:05:45.348Z,7.50
2023-05-07T19:08:12.884Z,7.50
2023-05-07T19:10:39.946Z,7.50
2023-05-07T19:13:06.917Z,7.50
2023-05-07T19:15:34.048Z,7.40
2023-05-07T19:18:01.489Z,7.40
2023-05-07T19:20:29.100Z,7.40
2023-05-07T19:22:56.378Z,7.30
2023-05-07T19:25:23.381Z,7.20
2023-05-07T19:27:51.168Z,7.20
2023-05-07T19:30:18.861Z,7.20
2023-05-07T19:32:46.027Z,7.20
2023-05-07T19:35:13.351Z,7.20
2023-05-07T19:37:40.664Z,7.10
2023-05-07T19:40:08.943Z,7.10
2023-05-07T19:42:36.268Z,7.10
2023-05-07T19:45:04.386Z,7.10
2023-05-07T19:47:31.522Z,7.00
2023-05-07T19:49:58.412Z,7.00
2023-05-07T19:52:26.467Z,7.00
2023-05-07T19:54:53.575Z,7.00
2023-05-07T19:57:20.552Z,6.90
2023-05-07T19:59:47.404Z,6.90
2023-05-07T20:02:15.339Z,6.90
2023-05-07T20:04:42.378Z,6.80
2023-05-07T20:07:09.400Z,6.80
2023-05-07T20:09:36.290Z,6.80
2023-05-07T20:12:03.269Z,6.80
2023-05-07T20:14:30.452Z,6.80
2023-05-07T20:16:57.375Z,6.70
2023-05-07T20:19:25.155Z,6.70
2023-05-07T20:21:52.976Z,6.70
2023-05-07T20:24:19.948Z,6.70
2023-05-07T20:26:47.142Z,6.70
2023-05-07T20:29:14.141Z,6.60
2023-05-07T20:31:41.569Z,6.60
2023-05-07T20:34:08.517Z,6.60
2023-05-07T20:36:36.032Z,6.50
2023-05-07T20:39:04.290Z,6.50
2023-05-07T20:41:31.288Z,6.50
2023-05-07T20:43:58.221Z,6.40
2023-05-07T20:46:27.496Z,6.40
2023-05-07T20:48:54.886Z,6.30
2023-05-07T20:51:21.795Z,6.30
2023-05-07T20:53:48.696Z,6.30
2023-05-07T20:56:15.990Z,6.30
2023-05-07T20:58:42.898Z,6.30
2023-05-07T21:01:09.887Z,6.30
2023-05-07T21:03:36.814Z,6.30
2023-05-07T21:06:04.307Z,6.20
2023-05-07T21:08:31.864Z,6.20
2023-05-07T21:10:59.263Z,6.20
2023-05-07T21:13:26.499Z,6.20
2023-05-07T21:15:53.585Z,6.10
2023-05-07T21:18:20.555Z,6.10
2023-05-07T21:20:47.502Z,6.10
2023-05-07T21:23:14.353Z,6.00
2023-05-07T21:25:41.559Z,6.00
2023-05-07T21:28:09.169Z,6.00
2023-05-07T21:30:36.894Z,6.00
2023-05-07T21:33:05.605Z,6.00
2023-05-07T21:35:35.374Z,6.00
2023-05-07T21:38:02.772Z,5.90
2023-05-07T21:40:29.792Z,5.90
2023-05-07T21:42:56.657Z,5.90
2023-05-07T21:45:23.510Z,5.90
2023-05-07T21:47:50.474Z,5.80
2023-05-07T21:50:17.629Z,5.80
2023-05-07T21:52:44.460Z,5.80
2023-05-07T21:55:11.703Z,5.70
2023-05-07T21:57:41.902Z,5.70
2023-05-07T22:00:11.590Z,5.70
2023-05-07T22:02:38.860Z,5.60
2023-05-07T22:05:06.184Z,5.60
2023-05-07T22:07:33.077Z,5.60
2023-05-07T22:09:59.992Z,5.50
2023-05-07T22:12:26.895Z,5.50
2023-05-07T22:14:53.825Z,5.50
2023-05-07T22:17:20.796Z,5.50
2023-05-07T22:19:47.660Z,5.40
2023-05-07T22:22:14.577Z,5.40
2023-05-07T22:24:41.522Z,5.40
2023-05-07T22:27:08.374Z,5.30
2023-05-07T22:29:35.248Z,5.30
2023-05-07T22:32:02.284Z,5.30
2023-05-07T22:34:29.717Z,5.20
2023-05-07T22:36:56.556Z,5.20
2023-05-07T22:39:23.413Z,5.20
2023-05-07T22:41:50.270Z,5.20
2023-05-07T22:44:17.188Z,5.20
2023-05-07T22:46:44.064Z,5.20
2023-05-07T22:49:10.945Z,5.20
2023-05-07T22:51:38.121Z,5.20
2023-05-07T22:54:05.026Z,5.20
2023-05-07T22:56:31.870Z,5.10
2023-05-07T22:58:58.755Z,5.20
2023-05-07T23:01:26.617Z,5.20
2023-05-07T23:03:53.596Z,5.10
2023-05-07T23:06:20.444Z,5.10
2023-05-07T23:08:47.351Z,5.10
2023-05-07T23:11:14.192Z,5.10
2023-05-07T23:13:41.081Z,5.00
2023-05-07T23:16:08.042Z,5.00
2023-05-07T23:18:35.005Z,5.00
2023-05-07T23:21:01.973Z,4.90
2023-05-07T23:23:33.670Z,4.90
2023-05-07T23:26:00.798Z,4.90
2023-05-07T23:28:27.761Z,4.80
2023-05-07T23:30:54.670Z,4.80
2023-05-07T23:33:21.537Z,4.70
2023-05-07T23:35:48.429Z,4.70
2023-05-07T23:38:15.522Z,4.70
2023-05-07T23:40:42.439Z,4.80
2023-05-07T23:43:09.301Z,4.80
2023-05-07T23:45:36.149Z,4.70
2023-05-07T23:48:03.034Z,4.60
2023-05-07T23:50:29.908Z,4.70
2023-05-07T23:52:56.777Z,4.60
2023-05-07T23:55:23.651Z,4.50
2023-05-07T23:57:50.481Z,4.50
